sensor_id;sensor_type;location;lat;lon;timestamp;temperature;humidity
28193;DHT22;15473;50.840;3.396;2023-03-23T00:01:04;11.90;99.90
28193;DHT22;15473;50.840;3.396;2023-03-23T00:03:36;11.90;99.90
28193;DHT22;15473;50.840;3.396;2023-03-23T00:06:08;11.90;99.90
28193;DHT22;15473;50.840;3.396;2023-03-23T00:11:31;11.80;99.90
28193;DHT22;15473;50.840;3.396;2023-03-23T00:14:03;11.80;99.90
28193;DHT22;15473;50.840;3.396;2023-03-23T00:16:38;11.80;99.90
28193;DHT22;15473;50.840;3.396;2023-03-23T00:19:15;11.80;99.90
28193;DHT22;15473;50.840;3.396;2023-03-23T00:21:47;11.80;99.90
28193;DHT22;15473;50.840;3.396;2023-03-23T00:24:19;11.80;99.90
28193;DHT22;15473;50.840;3.396;2023-03-23T00:26:49;11.80;99.90
28193;DHT22;15473;50.840;3.396;2023-03-23T00:29:22;11.80;99.90
28193;DHT22;15473;50.840;3.396;2023-03-23T00:31:52;11.70;99.90
28193;DHT22;15473;50.840;3.396;2023-03-23T00:34:24;11.70;99.90
28193;DHT22;15473;50.840;3.396;2023-03-23T00:36:55;11.70;99.90
28193;DHT22;15473;50.840;3.396;2023-03-23T00:39:28;11.60;99.90
28193;DHT22;15473;50.840;3.396;2023-03-23T00:42:05;11.60;99.90
28193;DHT22;15473;50.840;3.396;2023-03-23T00:44:35;11.60;99.90
28193;DHT22;15473;50.840;3.396;2023-03-23T00:47:06;11.60;99.90
28193;DHT22;15473;50.840;3.396;2023-03-23T00:49:44;11.60;99.90
28193;DHT22;15473;50.840;3.396;2023-03-23T00:52:15;11.60;99.90
28193;DHT22;15473;50.840;3.396;2023-03-23T00:54:46;11.60;99.90
28193;DHT22;15473;50.840;3.396;2023-03-23T00:57:16;11.60;99.90
28193;DHT22;15473;50.840;3.396;2023-03-23T00:59:46;11.60;99.90
28193;DHT22;15473;50.840;3.396;2023-03-23T01:02:31;11.70;99.90
28193;DHT22;15473;50.840;3.396;2023-03-23T01:05:01;11.70;99.90
28193;DHT22;15473;50.840;3.396;2023-03-23T01:07:38;11.70;99.90
28193;DHT22;15473;50.840;3.396;2023-03-23T01:10:08;11.70;99.90
28193;DHT22;15473;50.840;3.396;2023-03-23T01:12:42;11.70;99.90
28193;DHT22;15473;50.840;3.396;2023-03-23T01:15:15;11.70;99.90
28193;DHT22;15473;50.840;3.396;2023-03-23T01:17:46;11.70;99.90
28193;DHT22;15473;50.840;3.396;2023-03-23T01:20:17;11.70;99.90
28193;DHT22;15473;50.840;3.396;2023-03-23T01:22:47;11.60;99.90
28193;DHT22;15473;50.840;3.396;2023-03-23T01:25:34;11.70;99.90
28193;DHT22;15473;50.840;3.396;2023-03-23T01:28:05;11.60;99.90
28193;DHT22;15473;50.840;3.396;2023-03-23T01:30:36;11.70;99.90
28193;DHT22;15473;50.840;3.396;2023-03-23T01:33:06;11.70;99.90
28193;DHT22;15473;50.840;3.396;2023-03-23T01:35:37;11.70;99.90
28193;DHT22;15473;50.840;3.396;2023-03-23T01:38:11;11.70;99.90
28193;DHT22;15473;50.840;3.396;2023-03-23T01:40:41;11.70;99.90
28193;DHT22;15473;50.840;3.396;2023-03-23T01:43:15;11.70;99.90
28193;DHT22;15473;50.840;3.396;2023-03-23T01:45:45;11.70;99.90
28193;DHT22;15473;50.840;3.396;2023-03-23T01:48:31;11.70;99.90
28193;DHT22;15473;50.840;3.396;2023-03-23T01:51:15;11.70;99.90
28193;DHT22;15473;50.840;3.396;2023-03-23T01:53:50;11.70;99.90
28193;DHT22;15473;50.840;3.396;2023-03-23T01:56:24;11.70;99.90
28193;DHT22;15473;50.840;3.396;2023-03-23T01:59:00;11.70;99.90
28193;DHT22;15473;50.840;3.396;2023-03-23T02:01:37;11.80;99.90
28193;DHT22;15473;50.840;3.396;2023-03-23T02:04:13;11.80;99.90
28193;DHT22;15473;50.840;3.396;2023-03-23T02:09:45;11.80;99.90
28193;DHT22;15473;50.840;3.396;2023-03-23T02:12:15;11.80;99.90
28193;DHT22;15473;50.840;3.396;2023-03-23T02:14:45;11.80;99.90
28193;DHT22;15473;50.840;3.396;2023-03-23T02:17:31;11.80;99.90
28193;DHT22;15473;50.840;3.396;2023-03-23T02:22:50;11.80;99.90
28193;DHT22;15473;50.840;3.396;2023-03-23T02:34:09;11.80;99.90
28193;DHT22;15473;50.840;3.396;2023-03-23T02:36:42;11.80;99.90
28193;DHT22;15473;50.840;3.396;2023-03-23T02:42:23;11.80;99.90
28193;DHT22;15473;50.840;3.396;2023-03-23T02:44:54;11.80;99.90
28193;DHT22;15473;50.840;3.396;2023-03-23T02:47:25;11.80;99.90
28193;DHT22;15473;50.840;3.396;2023-03-23T02:50:06;11.80;99.90
28193;DHT22;15473;50.840;3.396;2023-03-23T02:52:54;11.80;99.90
28193;DHT22;15473;50.840;3.396;2023-03-23T02:55:29;11.80;99.90
28193;DHT22;15473;50.840;3.396;2023-03-23T02:57:59;11.80;99.90
28193;DHT22;15473;50.840;3.396;2023-03-23T03:00:30;11.80;99.90
28193;DHT22;15473;50.840;3.396;2023-03-23T03:03:01;11.80;99.90
28193;DHT22;15473;50.840;3.396;2023-03-23T03:05:38;11.80;99.90
28193;DHT22;15473;50.840;3.396;2023-03-23T03:08:11;11.80;99.90
28193;DHT22;15473;50.840;3.396;2023-03-23T03:11:04;11.80;99.90
28193;DHT22;15473;50.840;3.396;2023-03-23T03:13:47;11.80;99.90
28193;DHT22;15473;50.840;3.396;2023-03-23T03:16:43;11.80;99.90
28193;DHT22;15473;50.840;3.396;2023-03-23T03:22:11;11.80;99.90
28193;DHT22;15473;50.840;3.396;2023-03-23T03:24:42;11.80;99.90
28193;DHT22;15473;50.840;3.396;2023-03-23T03:27:20;11.80;99.90
28193;DHT22;15473;50.840;3.396;2023-03-23T03:29:55;11.80;99.90
28193;DHT22;15473;50.840;3.396;2023-03-23T03:32:43;11.80;99.90
28193;DHT22;15473;50.840;3.396;2023-03-23T03:35:13;11.80;99.90
28193;DHT22;15473;50.840;3.396;2023-03-23T03:37:45;11.80;99.90
28193;DHT22;15473;50.840;3.396;2023-03-23T03:40:19;11.80;99.90
28193;DHT22;15473;50.840;3.396;2023-03-23T03:42:50;11.80;99.90
28193;DHT22;15473;50.840;3.396;2023-03-23T03:45:20;11.80;99.90
28193;DHT22;15473;50.840;3.396;2023-03-23T03:47:50;11.80;99.90
28193;DHT22;15473;50.840;3.396;2023-03-23T03:50:20;11.80;99.90
28193;DHT22;15473;50.840;3.396;2023-03-23T03:52:50;11.80;99.90
28193;DHT22;15473;50.840;3.396;2023-03-23T03:55:21;11.80;99.90
28193;DHT22;15473;50.840;3.396;2023-03-23T03:57:51;11.70;99.90
28193;DHT22;15473;50.840;3.396;2023-03-23T04:00:21;11.70;99.90
28193;DHT22;15473;50.840;3.396;2023-03-23T04:02:54;11.70;99.90
28193;DHT22;15473;50.840;3.396;2023-03-23T04:05:24;11.70;99.90
28193;DHT22;15473;50.840;3.396;2023-03-23T04:08:03;11.70;99.90
28193;DHT22;15473;50.840;3.396;2023-03-23T04:10:40;11.70;99.90
28193;DHT22;15473;50.840;3.396;2023-03-23T04:13:22;11.70;99.90
28193;DHT22;15473;50.840;3.396;2023-03-23T04:15:52;11.70;99.90
28193;DHT22;15473;50.840;3.396;2023-03-23T04:18:22;11.70;99.90
28193;DHT22;15473;50.840;3.396;2023-03-23T04:21:05;11.70;99.90
28193;DHT22;15473;50.840;3.396;2023-03-23T04:23:45;11.60;99.90
28193;DHT22;15473;50.840;3.396;2023-03-23T04:26:15;11.60;99.90
28193;DHT22;15473;50.840;3.396;2023-03-23T04:28:46;11.60;99.90
28193;DHT22;15473;50.840;3.396;2023-03-23T04:31:17;11.60;99.90
28193;DHT22;15473;50.840;3.396;2023-03-23T04:33:47;11.60;99.90
28193;DHT22;15473;50.840;3.396;2023-03-23T04:36:21;11.50;99.90
28193;DHT22;15473;50.840;3.396;2023-03-23T04:38:52;11.50;99.90
28193;DHT22;15473;50.840;3.396;2023-03-23T04:41:23;11.40;99.90
28193;DHT22;15473;50.840;3.396;2023-03-23T04:43:53;11.40;99.90
28193;DHT22;15473;50.840;3.396;2023-03-23T04:46:26;11.40;99.90
28193;DHT22;15473;50.840;3.396;2023-03-23T04:51:50;11.30;99.90
28193;DHT22;15473;50.840;3.396;2023-03-23T04:54:20;11.20;99.90
28193;DHT22;15473;50.840;3.396;2023-03-23T04:56:50;11.10;99.90
28193;DHT22;15473;50.840;3.396;2023-03-23T04:59:21;11.10;99.90
28193;DHT22;15473;50.840;3.396;2023-03-23T05:04:46;11.00;99.90
28193;DHT22;15473;50.840;3.396;2023-03-23T05:07:16;11.00;99.90
28193;DHT22;15473;50.840;3.396;2023-03-23T05:09:52;11.00;99.90
28193;DHT22;15473;50.840;3.396;2023-03-23T05:12:22;11.00;99.90
28193;DHT22;15473;50.840;3.396;2023-03-23T05:15:08;11.00;99.90
28193;DHT22;15473;50.840;3.396;2023-03-23T05:17:38;10.90;99.90
28193;DHT22;15473;50.840;3.396;2023-03-23T05:20:12;10.90;99.90
28193;DHT22;15473;50.840;3.396;2023-03-23T05:22:45;10.80;99.90
28193;DHT22;15473;50.840;3.396;2023-03-23T05:25:18;10.60;99.90
28193;DHT22;15473;50.840;3.396;2023-03-23T05:27:48;10.40;99.90
28193;DHT22;15473;50.840;3.396;2023-03-23T05:30:21;10.30;99.90
28193;DHT22;15473;50.840;3.396;2023-03-23T05:32:51;10.00;99.90
28193;DHT22;15473;50.840;3.396;2023-03-23T05:35:23;9.90;99.90
28193;DHT22;15473;50.840;3.396;2023-03-23T05:37:53;9.80;99.90
28193;DHT22;15473;50.840;3.396;2023-03-23T05:40:25;9.70;99.90
28193;DHT22;15473;50.840;3.396;2023-03-23T05:42:57;9.60;99.90
28193;DHT22;15473;50.840;3.396;2023-03-23T05:45:27;9.50;99.90
28193;DHT22;15473;50.840;3.396;2023-03-23T05:48:09;9.50;99.90
28193;DHT22;15473;50.840;3.396;2023-03-23T05:50:40;9.40;99.90
28193;DHT22;15473;50.840;3.396;2023-03-23T05:53:10;9.40;99.90
28193;DHT22;15473;50.840;3.396;2023-03-23T05:55:46;9.40;99.90
28193;DHT22;15473;50.840;3.396;2023-03-23T05:58:22;9.40;99.90
28193;DHT22;15473;50.840;3.396;2023-03-23T06:00:52;9.40;99.90
28193;DHT22;15473;50.840;3.396;2023-03-23T06:03:30;9.40;99.90
28193;DHT22;15473;50.840;3.396;2023-03-23T06:06:00;9.40;99.90
28193;DHT22;15473;50.840;3.396;2023-03-23T06:08:44;9.30;99.90
28193;DHT22;15473;50.840;3.396;2023-03-23T06:11:14;9.40;99.90
28193;DHT22;15473;50.840;3.396;2023-03-23T06:13:56;9.40;99.90
28193;DHT22;15473;50.840;3.396;2023-03-23T06:16:29;9.40;99.90
28193;DHT22;15473;50.840;3.396;2023-03-23T06:18:59;9.40;99.90
28193;DHT22;15473;50.840;3.396;2023-03-23T06:21:35;9.50;99.90
28193;DHT22;15473;50.840;3.396;2023-03-23T06:24:07;9.50;99.90
28193;DHT22;15473;50.840;3.396;2023-03-23T06:26:39;9.50;99.90
28193;DHT22;15473;50.840;3.396;2023-03-23T06:29:15;9.50;99.90
28193;DHT22;15473;50.840;3.396;2023-03-23T06:31:52;9.50;99.90
28193;DHT22;15473;50.840;3.396;2023-03-23T06:34:24;9.50;99.90
28193;DHT22;15473;50.840;3.396;2023-03-23T06:36:54;9.50;99.90
28193;DHT22;15473;50.840;3.396;2023-03-23T06:39:25;9.50;99.90
28193;DHT22;15473;50.840;3.396;2023-03-23T06:41:58;9.50;99.90
28193;DHT22;15473;50.840;3.396;2023-03-23T06:44:28;9.60;99.90
28193;DHT22;15473;50.840;3.396;2023-03-23T06:46:58;9.60;99.90
28193;DHT22;15473;50.840;3.396;2023-03-23T06:49:30;9.70;99.90
28193;DHT22;15473;50.840;3.396;2023-03-23T06:52:00;9.70;99.90
28193;DHT22;15473;50.840;3.396;2023-03-23T06:54:33;9.70;99.90
28193;DHT22;15473;50.840;3.396;2023-03-23T06:57:05;9.70;99.90
28193;DHT22;15473;50.840;3.396;2023-03-23T06:59:35;9.70;99.90
28193;DHT22;15473;50.840;3.396;2023-03-23T07:02:08;9.70;99.90
28193;DHT22;15473;50.840;3.396;2023-03-23T07:04:39;9.70;99.90
28193;DHT22;15473;50.840;3.396;2023-03-23T07:07:11;9.70;99.90
28193;DHT22;15473;50.840;3.396;2023-03-23T07:09:50;9.70;99.90
28193;DHT22;15473;50.840;3.396;2023-03-23T07:12:20;9.70;99.90
28193;DHT22;15473;50.840;3.396;2023-03-23T07:14:52;9.70;99.90
28193;DHT22;15473;50.840;3.396;2023-03-23T07:17:22;9.70;99.90
28193;DHT22;15473;50.840;3.396;2023-03-23T07:19:52;9.60;99.90
28193;DHT22;15473;50.840;3.396;2023-03-23T07:22:22;9.60;99.90
28193;DHT22;15473;50.840;3.396;2023-03-23T07:25:03;9.60;99.90
28193;DHT22;15473;50.840;3.396;2023-03-23T07:27:34;9.70;99.90
28193;DHT22;15473;50.840;3.396;2023-03-23T07:30:05;9.70;99.90
28193;DHT22;15473;50.840;3.396;2023-03-23T07:32:49;9.70;99.90
28193;DHT22;15473;50.840;3.396;2023-03-23T07:35:20;9.80;99.90
28193;DHT22;15473;50.840;3.396;2023-03-23T07:37:51;9.90;99.90
28193;DHT22;15473;50.840;3.396;2023-03-23T07:40:24;10.10;99.90
28193;DHT22;15473;50.840;3.396;2023-03-23T07:42:56;10.10;99.90
28193;DHT22;15473;50.840;3.396;2023-03-23T07:45:27;10.20;99.90
28193;DHT22;15473;50.840;3.396;2023-03-23T07:47:59;10.20;99.90
28193;DHT22;15473;50.840;3.396;2023-03-23T07:50:30;10.20;99.90
28193;DHT22;15473;50.840;3.396;2023-03-23T07:53:01;10.10;99.90
28193;DHT22;15473;50.840;3.396;2023-03-23T07:55:32;10.10;99.90
28193;DHT22;15473;50.840;3.396;2023-03-23T07:58:02;10.20;99.90
28193;DHT22;15473;50.840;3.396;2023-03-23T08:00:32;10.20;99.90
28193;DHT22;15473;50.840;3.396;2023-03-23T08:03:14;10.20;99.90
28193;DHT22;15473;50.840;3.396;2023-03-23T08:05:44;10.30;99.90
28193;DHT22;15473;50.840;3.396;2023-03-23T08:08:16;10.30;99.90
28193;DHT22;15473;50.840;3.396;2023-03-23T08:10:47;10.40;99.90
28193;DHT22;15473;50.840;3.396;2023-03-23T08:13:24;10.50;99.90
28193;DHT22;15473;50.840;3.396;2023-03-23T08:15:54;10.60;99.90
28193;DHT22;15473;50.840;3.396;2023-03-23T08:18:42;10.70;99.90
28193;DHT22;15473;50.840;3.396;2023-03-23T08:21:12;10.80;99.90
28193;DHT22;15473;50.840;3.396;2023-03-23T08:23:54;10.90;99.90
28193;DHT22;15473;50.840;3.396;2023-03-23T08:26:24;11.00;99.90
28193;DHT22;15473;50.840;3.396;2023-03-23T08:28:55;11.00;99.90
28193;DHT22;15473;50.840;3.396;2023-03-23T08:31:26;11.10;99.90
28193;DHT22;15473;50.840;3.396;2023-03-23T08:33:57;11.30;99.90
28193;DHT22;15473;50.840;3.396;2023-03-23T08:36:28;11.40;99.90
28193;DHT22;15473;50.840;3.396;2023-03-23T08:38:58;11.60;99.90
28193;DHT22;15473;50.840;3.396;2023-03-23T08:41:35;11.70;99.90
28193;DHT22;15473;50.840;3.396;2023-03-23T08:44:17;11.80;99.90
28193;DHT22;15473;50.840;3.396;2023-03-23T08:46:47;11.90;99.90
28193;DHT22;15473;50.840;3.396;2023-03-23T08:49:25;12.00;99.90
28193;DHT22;15473;50.840;3.396;2023-03-23T08:51:57;12.00;99.90
28193;DHT22;15473;50.840;3.396;2023-03-23T08:54:27;12.20;99.90
28193;DHT22;15473;50.840;3.396;2023-03-23T08:57:18;12.30;99.90
28193;DHT22;15473;50.840;3.396;2023-03-23T08:59:48;12.40;99.90
28193;DHT22;15473;50.840;3.396;2023-03-23T09:02:18;12.80;99.90
28193;DHT22;15473;50.840;3.396;2023-03-23T09:04:48;12.90;99.90
28193;DHT22;15473;50.840;3.396;2023-03-23T09:07:25;13.10;99.90
28193;DHT22;15473;50.840;3.396;2023-03-23T09:10:10;13.10;99.90
28193;DHT22;15473;50.840;3.396;2023-03-23T09:12:41;13.10;99.90
28193;DHT22;15473;50.840;3.396;2023-03-23T09:15:13;13.20;99.90
28193;DHT22;15473;50.840;3.396;2023-03-23T09:17:46;13.30;99.90
28193;DHT22;15473;50.840;3.396;2023-03-23T09:20:30;13.50;99.90
28193;DHT22;15473;50.840;3.396;2023-03-23T09:23:00;13.70;99.90
28193;DHT22;15473;50.840;3.396;2023-03-23T09:25:30;13.90;99.90
28193;DHT22;15473;50.840;3.396;2023-03-23T09:28:01;14.50;99.90
28193;DHT22;15473;50.840;3.396;2023-03-23T09:30:39;15.20;99.90
28193;DHT22;15473;50.840;3.396;2023-03-23T09:33:10;15.50;99.90
28193;DHT22;15473;50.840;3.396;2023-03-23T09:35:40;15.50;99.90
28193;DHT22;15473;50.840;3.396;2023-03-23T09:38:11;15.70;99.90
28193;DHT22;15473;50.840;3.396;2023-03-23T09:43:42;15.80;99.90
28193;DHT22;15473;50.840;3.396;2023-03-23T09:49:10;16.70;99.90
28193;DHT22;15473;50.840;3.396;2023-03-23T09:51:48;17.10;99.90
28193;DHT22;15473;50.840;3.396;2023-03-23T09:54:38;16.90;99.90
28193;DHT22;15473;50.840;3.396;2023-03-23T09:57:45;16.90;99.90
28193;DHT22;15473;50.840;3.396;2023-03-23T10:00:23;16.60;99.90
28193;DHT22;15473;50.840;3.396;2023-03-23T10:06:10;16.10;99.90
28193;DHT22;15473;50.840;3.396;2023-03-23T10:09:01;16.00;99.90
28193;DHT22;15473;50.840;3.396;2023-03-23T10:14:29;15.70;99.90
28193;DHT22;15473;50.840;3.396;2023-03-23T10:17:03;15.90;99.90
28193;DHT22;15473;50.840;3.396;2023-03-23T10:19:39;16.10;99.90
28193;DHT22;15473;50.840;3.396;2023-03-23T10:22:11;16.80;99.90
28193;DHT22;15473;50.840;3.396;2023-03-23T10:24:46;17.20;99.90
28193;DHT22;15473;50.840;3.396;2023-03-23T10:27:42;17.90;99.90
28193;DHT22;15473;50.840;3.396;2023-03-23T10:30:22;18.30;99.90
28193;DHT22;15473;50.840;3.396;2023-03-23T10:33:20;18.70;99.90
28193;DHT22;15473;50.840;3.396;2023-03-23T10:36:10;19.00;99.90
28193;DHT22;15473;50.840;3.396;2023-03-23T10:38:47;19.40;99.90
28193;DHT22;15473;50.840;3.396;2023-03-23T10:41:22;18.90;99.90
28193;DHT22;15473;50.840;3.396;2023-03-23T10:44:18;18.10;99.90
28193;DHT22;15473;50.840;3.396;2023-03-23T10:47:08;17.20;99.90
28193;DHT22;15473;50.840;3.396;2023-03-23T10:52:36;16.40;99.90
28193;DHT22;15473;50.840;3.396;2023-03-23T10:55:09;16.10;99.90
28193;DHT22;15473;50.840;3.396;2023-03-23T10:57:45;15.90;99.90
28193;DHT22;15473;50.840;3.396;2023-03-23T11:00:21;15.90;99.90
28193;DHT22;15473;50.840;3.396;2023-03-23T11:06:06;15.90;99.90
28193;DHT22;15473;50.840;3.396;2023-03-23T11:08:46;16.10;99.90
28193;DHT22;15473;50.840;3.396;2023-03-23T11:11:14;16.00;99.90
28193;DHT22;15473;50.840;3.396;2023-03-23T11:13:46;16.00;99.90
28193;DHT22;15473;50.840;3.396;2023-03-23T11:19:20;16.30;99.90
28193;DHT22;15473;50.840;3.396;2023-03-23T11:21:51;17.40;99.90
28193;DHT22;15473;50.840;3.396;2023-03-23T11:24:23;17.70;99.90
28193;DHT22;15473;50.840;3.396;2023-03-23T11:26:56;17.40;99.90
28193;DHT22;15473;50.840;3.396;2023-03-23T11:29:29;17.00;99.90
28193;DHT22;15473;50.840;3.396;2023-03-23T11:32:05;16.60;99.90
28193;DHT22;15473;50.840;3.396;2023-03-23T11:37:20;16.20;99.90
28193;DHT22;15473;50.840;3.396;2023-03-23T11:48:24;17.20;99.90
28193;DHT22;15473;50.840;3.396;2023-03-23T11:51:13;19.70;99.90
28193;DHT22;15473;50.840;3.396;2023-03-23T11:56:58;20.20;99.90
28193;DHT22;15473;50.840;3.396;2023-03-23T11:59:32;20.40;99.90
28193;DHT22;15473;50.840;3.396;2023-03-23T12:08:56;18.20;99.90
28193;DHT22;15473;50.840;3.396;2023-03-23T12:10:55;17.70;99.90
28193;DHT22;15473;50.840;3.396;2023-03-23T12:22:05;16.80;99.90
28193;DHT22;15473;50.840;3.396;2023-03-23T12:24:57;16.70;99.90
28193;DHT22;15473;50.840;3.396;2023-03-23T12:30:38;16.40;99.90
28193;DHT22;15473;50.840;3.396;2023-03-23T12:48:45;16.40;99.90
28193;DHT22;15473;50.840;3.396;2023-03-23T12:57:32;15.70;99.90
28193;DHT22;15473;50.840;3.396;2023-03-23T13:03:30;15.40;99.90
28193;DHT22;15473;50.840;3.396;2023-03-23T13:06:18;15.10;99.90
28193;DHT22;15473;50.840;3.396;2023-03-23T13:11:40;14.20;99.90
28193;DHT22;15473;50.840;3.396;2023-03-23T13:23:39;13.80;99.90
28193;DHT22;15473;50.840;3.396;2023-03-23T13:29:16;13.40;99.90
28193;DHT22;15473;50.840;3.396;2023-03-23T13:31:47;13.50;99.90
28193;DHT22;15473;50.840;3.396;2023-03-23T13:34:31;13.50;99.90
28193;DHT22;15473;50.840;3.396;2023-03-23T13:45:46;16.00;99.90
28193;DHT22;15473;50.840;3.396;2023-03-23T13:48:26;16.70;99.90
28193;DHT22;15473;50.840;3.396;2023-03-23T13:50:59;16.50;99.90
28193;DHT22;15473;50.840;3.396;2023-03-23T13:53:46;16.20;99.90
28193;DHT22;15473;50.840;3.396;2023-03-23T13:56:20;15.90;99.90
28193;DHT22;15473;50.840;3.396;2023-03-23T13:59:03;15.60;99.90
28193;DHT22;15473;50.840;3.396;2023-03-23T14:01:35;15.40;99.90
28193;DHT22;15473;50.840;3.396;2023-03-23T14:06:57;14.90;99.90
28193;DHT22;15473;50.840;3.396;2023-03-23T14:09:41;14.70;99.90
28193;DHT22;15473;50.840;3.396;2023-03-23T14:12:30;14.80;99.90
28193;DHT22;15473;50.840;3.396;2023-03-23T14:15:01;15.20;99.90
28193;DHT22;15473;50.840;3.396;2023-03-23T14:17:42;15.80;99.90
28193;DHT22;15473;50.840;3.396;2023-03-23T14:20:30;16.00;99.90
28193;DHT22;15473;50.840;3.396;2023-03-23T14:26:17;16.20;99.90
28193;DHT22;15473;50.840;3.396;2023-03-23T14:28:53;16.10;99.90
28193;DHT22;15473;50.840;3.396;2023-03-23T14:31:26;16.00;99.90
28193;DHT22;15473;50.840;3.396;2023-03-23T14:36:48;17.20;99.90
28193;DHT22;15473;50.840;3.396;2023-03-23T14:39:21;17.60;99.90
28193;DHT22;15473;50.840;3.396;2023-03-23T14:41:55;17.80;99.90
28193;DHT22;15473;50.840;3.396;2023-03-23T14:44:30;17.90;99.90
28193;DHT22;15473;50.840;3.396;2023-03-23T14:47:31;18.30;99.90
28193;DHT22;15473;50.840;3.396;2023-03-23T14:49:41;18.50;99.90
28193;DHT22;15473;50.840;3.396;2023-03-23T14:52:17;18.70;99.90
28193;DHT22;15473;50.840;3.396;2023-03-23T14:54:48;18.90;99.90
28193;DHT22;15473;50.840;3.396;2023-03-23T14:57:30;18.90;99.90
28193;DHT22;15473;50.840;3.396;2023-03-23T15:00:00;18.80;99.90
28193;DHT22;15473;50.840;3.396;2023-03-23T15:02:38;18.40;99.90
28193;DHT22;15473;50.840;3.396;2023-03-23T15:05:26;18.10;99.90
28193;DHT22;15473;50.840;3.396;2023-03-23T15:07:56;17.80;99.90
28193;DHT22;15473;50.840;3.396;2023-03-23T15:10:33;17.60;99.90
28193;DHT22;15473;50.840;3.396;2023-03-23T15:13:03;17.60;99.90
28193;DHT22;15473;50.840;3.396;2023-03-23T15:15:35;17.40;99.90
28193;DHT22;15473;50.840;3.396;2023-03-23T15:18:14;17.00;99.90
28193;DHT22;15473;50.840;3.396;2023-03-23T15:23:42;16.20;99.90
28193;DHT22;15473;50.840;3.396;2023-03-23T15:26:33;15.70;99.90
28193;DHT22;15473;50.840;3.396;2023-03-23T15:29:16;15.30;99.90
28193;DHT22;15473;50.840;3.396;2023-03-23T15:31:46;15.00;99.90
28193;DHT22;15473;50.840;3.396;2023-03-23T15:37:19;14.70;99.90
28193;DHT22;15473;50.840;3.396;2023-03-23T15:39:54;14.60;99.90
28193;DHT22;15473;50.840;3.396;2023-03-23T15:42:31;14.60;99.90
28193;DHT22;15473;50.840;3.396;2023-03-23T15:47:46;14.60;99.90
28193;DHT22;15473;50.840;3.396;2023-03-23T15:52:58;15.10;99.90
28193;DHT22;15473;50.840;3.396;2023-03-23T15:55:37;16.00;99.90
28193;DHT22;15473;50.840;3.396;2023-03-23T15:58:12;16.40;99.90
28193;DHT22;15473;50.840;3.396;2023-03-23T16:00:50;16.40;99.90
28193;DHT22;15473;50.840;3.396;2023-03-23T16:03:27;16.30;99.90
28193;DHT22;15473;50.840;3.396;2023-03-23T16:06:01;16.20;99.90
28193;DHT22;15473;50.840;3.396;2023-03-23T16:08:31;16.00;99.90
28193;DHT22;15473;50.840;3.396;2023-03-23T16:11:01;15.80;99.90
28193;DHT22;15473;50.840;3.396;2023-03-23T16:13:31;15.60;99.90
28193;DHT22;15473;50.840;3.396;2023-03-23T16:16:06;15.60;99.90
28193;DHT22;15473;50.840;3.396;2023-03-23T16:18:44;15.50;99.90
28193;DHT22;15473;50.840;3.396;2023-03-23T16:21:20;15.50;99.90
28193;DHT22;15473;50.840;3.396;2023-03-23T16:23:55;15.40;99.90
28193;DHT22;15473;50.840;3.396;2023-03-23T16:26:29;15.30;99.90
28193;DHT22;15473;50.840;3.396;2023-03-23T16:29:15;15.20;99.90
28193;DHT22;15473;50.840;3.396;2023-03-23T16:31:45;15.10;99.90
28193;DHT22;15473;50.840;3.396;2023-03-23T16:34:18;15.10;99.90
28193;DHT22;15473;50.840;3.396;2023-03-23T16:36:49;15.10;99.90
28193;DHT22;15473;50.840;3.396;2023-03-23T16:39:33;15.00;99.90
28193;DHT22;15473;50.840;3.396;2023-03-23T16:42:10;14.90;99.90
28193;DHT22;15473;50.840;3.396;2023-03-23T16:44:55;14.90;99.90
28193;DHT22;15473;50.840;3.396;2023-03-23T16:47:26;14.90;99.90
28193;DHT22;15473;50.840;3.396;2023-03-23T16:50:06;14.80;99.90
28193;DHT22;15473;50.840;3.396;2023-03-23T16:52:47;14.80;99.90
28193;DHT22;15473;50.840;3.396;2023-03-23T16:55:17;14.70;99.90
28193;DHT22;15473;50.840;3.396;2023-03-23T16:57:47;14.60;99.90
28193;DHT22;15473;50.840;3.396;2023-03-23T17:00:24;14.60;99.90
28193;DHT22;15473;50.840;3.396;2023-03-23T17:02:55;14.60;99.90
28193;DHT22;15473;50.840;3.396;2023-03-23T17:05:28;14.60;99.90
28193;DHT22;15473;50.840;3.396;2023-03-23T17:08:05;14.60;99.90
28193;DHT22;15473;50.840;3.396;2023-03-23T17:10:37;14.60;99.90
28193;DHT22;15473;50.840;3.396;2023-03-23T17:13:09;14.50;99.90
28193;DHT22;15473;50.840;3.396;2023-03-23T17:15:41;14.40;99.90
28193;DHT22;15473;50.840;3.396;2023-03-23T17:18:11;14.40;99.90
28193;DHT22;15473;50.840;3.396;2023-03-23T17:20:50;14.40;99.90
28193;DHT22;15473;50.840;3.396;2023-03-23T17:23:27;14.30;99.90
28193;DHT22;15473;50.840;3.396;2023-03-23T17:26:12;14.30;99.90
28193;DHT22;15473;50.840;3.396;2023-03-23T17:28:42;14.30;99.90
28193;DHT22;15473;50.840;3.396;2023-03-23T17:31:12;14.30;99.90
28193;DHT22;15473;50.840;3.396;2023-03-23T17:33:49;14.30;99.90
28193;DHT22;15473;50.840;3.396;2023-03-23T17:36:32;14.20;99.90
28193;DHT22;15473;50.840;3.396;2023-03-23T17:39:03;14.10;99.90
28193;DHT22;15473;50.840;3.396;2023-03-23T17:41:34;14.10;99.90
28193;DHT22;15473;50.840;3.396;2023-03-23T17:44:04;14.00;99.90
28193;DHT22;15473;50.840;3.396;2023-03-23T17:46:34;14.00;99.90
28193;DHT22;15473;50.840;3.396;2023-03-23T17:49:20;13.90;99.90
28193;DHT22;15473;50.840;3.396;2023-03-23T17:52:02;13.80;99.90
28193;DHT22;15473;50.840;3.396;2023-03-23T17:54:46;13.70;99.90
28193;DHT22;15473;50.840;3.396;2023-03-23T17:57:16;13.60;99.90
28193;DHT22;15473;50.840;3.396;2023-03-23T17:59:52;13.50;99.90
28193;DHT22;15473;50.840;3.396;2023-03-23T18:02:37;13.50;99.90
28193;DHT22;15473;50.840;3.396;2023-03-23T18:05:07;13.40;99.90
28193;DHT22;15473;50.840;3.396;2023-03-23T18:07:44;13.30;99.90
28193;DHT22;15473;50.840;3.396;2023-03-23T18:10:14;13.30;99.90
28193;DHT22;15473;50.840;3.396;2023-03-23T18:12:45;13.20;99.90
28193;DHT22;15473;50.840;3.396;2023-03-23T18:15:18;13.20;99.90
28193;DHT22;15473;50.840;3.396;2023-03-23T18:17:48;13.10;99.90
28193;DHT22;15473;50.840;3.396;2023-03-23T18:20:21;13.10;99.90
28193;DHT22;15473;50.840;3.396;2023-03-23T18:22:52;13.00;99.90
28193;DHT22;15473;50.840;3.396;2023-03-23T18:25:22;12.90;99.90
28193;DHT22;15473;50.840;3.396;2023-03-23T18:27:54;12.90;99.90
28193;DHT22;15473;50.840;3.396;2023-03-23T18:30:31;12.90;99.90
28193;DHT22;15473;50.840;3.396;2023-03-23T18:33:01;12.90;99.90
28193;DHT22;15473;50.840;3.396;2023-03-23T18:35:31;12.80;99.90
28193;DHT22;15473;50.840;3.396;2023-03-23T18:38:08;12.80;99.90
28193;DHT22;15473;50.840;3.396;2023-03-23T18:40:52;12.80;99.90
28193;DHT22;15473;50.840;3.396;2023-03-23T18:43:22;12.80;99.90
28193;DHT22;15473;50.840;3.396;2023-03-23T18:45:56;12.80;99.90
28193;DHT22;15473;50.840;3.396;2023-03-23T18:48:27;12.70;99.90
28193;DHT22;15473;50.840;3.396;2023-03-23T18:50:58;12.70;99.90